createdAt,value
2023-04-14T00:02:24.764Z,5.10
2023-04-14T00:04:55.143Z,5.00
2023-04-14T00:07:22.381Z,4.90
2023-04-14T00:09:49.342Z,4.90
2023-04-14T00:12:16.435Z,4.90
2023-04-14T00:14:43.665Z,4.80
2023-04-14T00:17:11.384Z,4.70
2023-04-14T00:19:38.561Z,4.70
2023-04-14T00:22:05.725Z,4.70
2023-04-14T00:24:32.823Z,4.60
2023-04-14T00:26:59.869Z,4.70
2023-04-14T00:29:26.942Z,4.60
2023-04-14T00:31:53.980Z,4.50
2023-04-14T00:34:21.194Z,4.50
2023-04-14T00:36:48.252Z,4.50
2023-04-14T00:39:15.280Z,4.50
2023-04-14T00:41:43.346Z,4.50
2023-04-14T00:44:10.940Z,4.40
2023-04-14T00:46:39.750Z,4.50
2023-04-14T00:49:07.545Z,4.40
2023-04-14T00:51:36.046Z,4.30
2023-04-14T00:54:11.020Z,4.20
2023-04-14T00:56:39.396Z,4.30
2023-04-14T00:59:07.558Z,4.30
2023-04-14T01:01:38.212Z,4.20
2023-04-14T01:04:06.128Z,4.20
2023-04-14T01:06:33.971Z,4.10
2023-04-14T01:09:01.619Z,4.10
2023-04-14T01:12:14.674Z,4.10
2023-04-14T01:15:04.852Z,4.10
2023-04-14T01:17:34.940Z,4.10
2023-04-14T01:20:37.758Z,4.10
2023-04-14T01:23:27.686Z,4.00
2023-04-14T01:26:22.080Z,4.00
2023-04-14T01:29:19.769Z,4.00
2023-04-14T01:32:02.080Z,3.90
2023-04-14T01:34:43.075Z,3.80
2023-04-14T01:37:18.153Z,3.70
2023-04-14T01:39:53.940Z,3.70
2023-04-14T01:42:29.008Z,3.80
2023-04-14T01:45:02.447Z,3.80
2023-04-14T01:47:30.432Z,3.70
2023-04-14T01:49:59.464Z,3.70
2023-04-14T01:52:27.822Z,3.60
2023-04-14T01:54:57.128Z,3.60
2023-04-14T01:57:26.584Z,3.60
2023-04-14T01:59:59.556Z,3.60
2023-04-14T02:02:27.865Z,3.60
2023-04-14T02:04:57.763Z,3.60
2023-04-14T02:07:26.705Z,3.50
2023-04-14T02:09:56.017Z,3.50
2023-04-14T02:12:26.593Z,3.40
2023-04-14T02:14:55.034Z,3.50
2023-04-14T02:17:22.636Z,3.50
2023-04-14T02:19:51.283Z,3.40
2023-04-14T02:22:18.308Z,3.40
2023-04-14T02:24:47.788Z,3.40
2023-04-14T02:27:33.441Z,3.30
2023-04-14T02:30:12.601Z,3.40
2023-04-14T02:32:49.698Z,3.30
2023-04-14T02:35:27.165Z,3.30
2023-04-14T02:38:08.355Z,3.30
2023-04-14T02:40:41.439Z,3.10
2023-04-14T02:43:28.739Z,3.30
2023-04-14T02:45:56.934Z,3.30
2023-04-14T02:48:27.200Z,3.30
2023-04-14T02:50:56.831Z,3.20
2023-04-14T02:53:25.567Z,3.30
2023-04-14T02:55:52.616Z,3.30
2023-04-14T02:58:21.136Z,3.20
2023-04-14T03:00:50.273Z,3.10
2023-04-14T03:03:18.758Z,3.00
2023-04-14T03:05:47.178Z,3.10
2023-04-14T03:08:16.842Z,3.10
2023-04-14T03:10:48.995Z,3.10
2023-04-14T03:13:18.815Z,3.00
2023-04-14T03:15:46.834Z,2.90
2023-04-14T03:18:15.904Z,2.80
2023-04-14T03:20:45.870Z,2.90
2023-04-14T03:23:13.897Z,2.90
2023-04-14T03:25:41.717Z,2.90
2023-04-14T03:28:16.188Z,2.90
2023-04-14T03:30:49.366Z,2.90
2023-04-14T03:33:22.919Z,2.80
2023-04-14T03:35:53.409Z,2.80
2023-04-14T03:38:21.521Z,2.90
2023-04-14T03:40:50.460Z,2.90
2023-04-14T03:43:20.327Z,2.90
2023-04-14T03:45:49.406Z,2.90
2023-04-14T03:48:19.597Z,2.80
2023-04-14T03:50:51.587Z,2.80
2023-04-14T03:53:21.342Z,2.80
2023-04-14T03:55:51.645Z,2.80
2023-04-14T03:58:20.430Z,2.70
2023-04-14T04:00:48.793Z,2.80
2023-04-14T04:03:16.703Z,2.80
2023-04-14T04:05:44.747Z,2.90
2023-04-14T04:08:12.731Z,2.80
2023-04-14T04:10:42.811Z,2.80
2023-04-14T04:13:16.660Z,2.80
2023-04-14T04:15:45.492Z,2.70
2023-04-14T04:18:17.032Z,2.70
2023-04-14T04:20:46.229Z,2.80
2023-04-14T04:23:15.693Z,2.80
2023-04-14T04:25:43.007Z,2.80
2023-04-14T04:28:10.314Z,2.70
2023-04-14T04:30:42.912Z,2.70
2023-04-14T04:33:11.568Z,2.70
2023-04-14T04:35:41.211Z,2.80
2023-04-14T04:38:11.380Z,2.60
2023-04-14T04:40:39.209Z,2.60
2023-04-14T04:43:06.225Z,2.60
2023-04-14T04:45:59.905Z,2.60
2023-04-14T04:48:26.977Z,2.70
2023-04-14T04:50:54.177Z,2.70
2023-04-14T04:53:21.197Z,2.70
2023-04-14T04:55:48.206Z,2.70
2023-04-14T04:58:15.271Z,2.70
2023-04-14T05:00:43.528Z,2.70
2023-04-14T05:03:10.735Z,2.70
2023-04-14T05:05:38.002Z,2.70
2023-04-14T05:08:06.003Z,2.80
2023-04-14T05:10:37.254Z,2.80
2023-04-14T05:13:04.337Z,2.90
2023-04-14T05:15:31.868Z,2.80
2023-04-14T05:17:59.318Z,2.90
2023-04-14T05:20:26.973Z,2.80
2023-04-14T05:22:54.002Z,2.80
2023-04-14T05:25:21.484Z,3.00
2023-04-14T05:27:48.513Z,3.00
2023-04-14T05:30:15.830Z,3.00
2023-04-14T05:32:42.884Z,3.10
2023-04-14T05:35:10.000Z,3.20
2023-04-14T05:37:37.059Z,3.10
2023-04-14T05:40:05.161Z,3.10
2023-04-14T05:42:32.192Z,3.10
2023-04-14T05:44:59.290Z,3.20
2023-04-14T05:47:26.440Z,3.30
2023-04-14T05:49:53.638Z,3.50
2023-04-14T05:52:20.690Z,3.60
2023-04-14T05:54:47.689Z,3.60
2023-04-14T05:57:14.741Z,3.80
2023-04-14T05:59:42.480Z,3.90
2023-04-14T06:02:09.741Z,4.00
2023-04-14T06:04:37.022Z,4.00
2023-04-14T06:07:04.331Z,4.20
2023-04-14T06:09:31.822Z,4.30
2023-04-14T06:11:58.926Z,4.40
2023-04-14T06:14:25.952Z,4.50
2023-04-14T06:16:55.500Z,4.60
2023-04-14T06:19:23.044Z,4.70
2023-04-14T06:21:50.302Z,4.70
2023-04-14T06:24:17.473Z,4.80
2023-04-14T06:26:44.617Z,5.00
2023-04-14T06:29:12.058Z,5.00
2023-04-14T06:31:39.286Z,5.10
2023-04-14T06:34:06.550Z,5.20
2023-04-14T06:36:33.884Z,5.20
2023-04-14T06:39:01.568Z,5.30
2023-04-14T06:41:29.216Z,5.50
2023-04-14T06:43:56.598Z,5.50
2023-04-14T06:46:23.684Z,5.60
2023-04-14T06:48:51.114Z,5.70
2023-04-14T06:51:18.979Z,5.80
2023-04-14T06:53:46.236Z,5.90
2023-04-14T06:56:13.497Z,6.10
2023-04-14T06:58:41.231Z,6.20
2023-04-14T07:01:08.389Z,6.30
2023-04-14T07:03:36.058Z,6.50
2023-04-14T07:06:11.965Z,6.50
2023-04-14T07:08:40.756Z,6.50
2023-04-14T07:11:11.028Z,6.60
2023-04-14T07:13:40.606Z,6.80
2023-04-14T07:16:08.759Z,6.90
2023-04-14T07:18:36.604Z,7.00
2023-04-14T07:21:03.862Z,7.10
2023-04-14T07:23:31.620Z,7.20
2023-04-14T07:26:00.714Z,7.30
2023-04-14T07:28:28.462Z,7.30
2023-04-14T07:30:55.793Z,7.60
2023-04-14T07:33:23.033Z,7.70
2023-04-14T07:36:02.103Z,7.80
2023-04-14T07:38:33.256Z,7.90
2023-04-14T07:41:04.026Z,8.10
2023-04-14T07:43:37.448Z,8.30
2023-04-14T07:46:07.187Z,8.30
2023-04-14T07:48:36.885Z,8.50
2023-04-14T07:51:05.807Z,8.70
2023-04-14T07:53:34.018Z,8.80
2023-04-14T07:56:01.147Z,9.00
2023-04-14T07:58:29.546Z,9.10
2023-04-14T08:00:57.397Z,9.10
2023-04-14T08:03:24.676Z,9.30
2023-04-14T08:05:52.477Z,9.50
2023-04-14T08:08:19.685Z,9.60
2023-04-14T08:10:46.835Z,9.70
2023-04-14T08:13:13.889Z,9.90
2023-04-14T08:15:41.097Z,10.00
2023-04-14T08:18:08.314Z,10.00
2023-04-14T08:20:35.426Z,10.20
2023-04-14T08:23:02.650Z,10.30
2023-04-14T08:25:29.716Z,10.40
2023-04-14T08:27:56.692Z,10.50
2023-04-14T08:30:24.774Z,10.40
2023-04-14T08:32:52.209Z,10.50
2023-04-14T08:35:38.942Z,10.60
2023-04-14T08:38:06.385Z,10.70
2023-04-14T08:40:41.032Z,10.90
2023-04-14T08:43:08.420Z,10.90
2023-04-14T08:45:36.797Z,10.90
2023-04-14T08:48:06.098Z,10.90
2023-04-14T08:50:43.176Z,10.90
2023-04-14T08:53:12.662Z,10.90
2023-04-14T08:55:43.584Z,11.00
2023-04-14T08:58:11.291Z,11.20
2023-04-14T09:00:40.308Z,11.20
2023-04-14T09:03:09.481Z,11.20
2023-04-14T09:05:37.862Z,11.20
2023-04-14T09:08:05.241Z,11.50
2023-04-14T09:10:32.468Z,11.50
2023-04-14T09:13:01.419Z,11.70
2023-04-14T09:15:29.220Z,11.80
2023-04-14T09:17:57.281Z,11.80
2023-04-14T09:20:37.906Z,11.90
2023-04-14T09:23:10.178Z,12.00
2023-04-14T09:25:39.806Z,12.20
2023-04-14T09:28:07.370Z,12.20
2023-04-14T09:30:35.053Z,12.00
2023-04-14T09:33:07.490Z,11.60
2023-04-14T09:35:47.670Z,11.80
2023-04-14T09:38:17.083Z,12.30
2023-04-14T09:40:45.034Z,12.40
2023-04-14T09:43:27.413Z,12.20
2023-04-14T09:45:56.149Z,12.20
2023-04-14T09:48:24.366Z,12.00
2023-04-14T09:51:07.322Z,12.10
2023-04-14T09:53:37.806Z,12.40
2023-04-14T09:56:11.882Z,12.80
2023-04-14T09:58:42.986Z,13.00
2023-04-14T10:01:20.707Z,12.70
2023-04-14T10:03:50.083Z,12.50
2023-04-14T10:06:20.144Z,12.80
2023-04-14T10:08:49.486Z,13.00
2023-04-14T10:11:20.427Z,12.80
2023-04-14T10:14:00.933Z,12.40
2023-04-14T10:16:28.264Z,12.30
2023-04-14T10:18:57.560Z,12.90
2023-04-14T10:21:26.177Z,13.30
2023-04-14T10:23:55.582Z,13.00
2023-04-14T10:26:22.791Z,13.00
2023-04-14T10:28:53.117Z,13.00
2023-04-14T10:31:34.982Z,13.20
2023-04-14T10:34:13.270Z,13.70
2023-04-14T10:36:40.840Z,13.90
2023-04-14T10:39:10.380Z,13.30
2023-04-14T10:41:52.040Z,13.70
2023-04-14T10:44:36.129Z,13.70
2023-04-14T10:47:08.370Z,13.70
2023-04-14T10:49:38.394Z,12.90
2023-04-14T10:52:27.568Z,12.80
2023-04-14T10:55:08.149Z,12.90
2023-04-14T10:57:45.844Z,13.00
2023-04-14T11:00:25.239Z,13.60
2023-04-14T11:03:08.330Z,14.30
2023-04-14T11:05:41.866Z,14.30
2023-04-14T11:08:36.226Z,13.80
2023-04-14T11:11:06.045Z,14.10
2023-04-14T11:13:34.975Z,13.70
2023-04-14T11:16:09.591Z,13.90
2023-04-14T11:18:46.875Z,14.20
2023-04-14T11:21:19.397Z,13.90
2023-04-14T11:23:50.916Z,13.80
2023-04-14T11:26:18.510Z,13.60
2023-04-14T11:28:48.661Z,14.10
2023-04-14T11:31:27.659Z,14.80
2023-04-14T11:33:54.907Z,14.80
2023-04-14T11:36:24.966Z,14.50
2023-04-14T11:38:52.383Z,14.30
2023-04-14T11:41:21.615Z,14.30
2023-04-14T11:43:48.897Z,14.10
2023-04-14T11:46:19.367Z,14.40
2023-04-14T11:48:46.521Z,15.00
2023-04-14T11:51:14.031Z,15.10
2023-04-14T11:53:43.273Z,15.10
2023-04-14T11:56:12.822Z,15.00
2023-04-14T11:58:40.044Z,14.80
2023-04-14T12:01:07.115Z,14.50
2023-04-14T12:03:36.837Z,14.00
2023-04-14T12:06:04.648Z,14.60
2023-04-14T12:08:32.898Z,15.00
2023-04-14T12:11:15.763Z,15.30
2023-04-14T12:13:45.015Z,15.90
2023-04-14T12:16:13.044Z,15.70
2023-04-14T12:18:40.814Z,15.20
2023-04-14T12:21:10.880Z,15.10
2023-04-14T12:23:40.894Z,15.00
2023-04-14T12:26:12.385Z,14.70
2023-04-14T12:28:41.891Z,14.80
2023-04-14T12:31:10.462Z,15.30
2023-04-14T12:33:37.756Z,15.20
2023-04-14T12:36:13.186Z,15.20
2023-04-14T12:38:40.397Z,15.80
2023-04-14T12:41:07.565Z,15.70
2023-04-14T12:43:37.795Z,15.40
2023-04-14T12:46:05.892Z,15.50
2023-04-14T12:48:48.428Z,15.60
2023-04-14T12:51:20.641Z,15.50
2023-04-14T12:53:50.506Z,15.40
2023-04-14T12:56:22.334Z,15.50
2023-04-14T12:58:51.338Z,15.60
2023-04-14T13:01:22.584Z,16.00
2023-04-14T13:03:52.577Z,15.70
2023-04-14T13:06:23.098Z,15.60
2023-04-14T13:08:53.124Z,15.50
2023-04-14T13:11:22.544Z,15.20
2023-04-14T13:13:51.088Z,15.00
2023-04-14T13:16:18.681Z,14.70
2023-04-14T13:18:47.595Z,14.70
2023-04-14T13:21:15.438Z,14.70
2023-04-14T13:23:42.760Z,15.20
2023-04-14T13:26:10.588Z,15.40
2023-04-14T13:28:37.873Z,15.30
2023-04-14T13:31:05.152Z,15.30
2023-04-14T13:33:33.273Z,15.30
2023-04-14T13:36:03.087Z,15.40
2023-04-14T13:38:31.087Z,15.40
2023-04-14T13:40:58.435Z,15.30
2023-04-14T13:43:26.252Z,15.30
2023-04-14T13:45:56.914Z,15.30
2023-04-14T13:48:24.108Z,15.30
2023-04-14T13:50:52.502Z,15.70
2023-04-14T13:53:19.926Z,15.90
2023-04-14T13:55:47.077Z,16.20
2023-04-14T13:58:14.410Z,16.50
2023-04-14T14:00:41.714Z,16.80
2023-04-14T14:03:08.966Z,16.80
2023-04-14T14:05:36.171Z,16.80
2023-04-14T14:08:03.727Z,16.70
2023-04-14T14:10:30.978Z,16.20
2023-04-14T14:12:58.063Z,16.10
2023-04-14T14:15:25.855Z,15.80
2023-04-14T14:17:55.798Z,16.00
2023-04-14T14:20:22.758Z,15.90
2023-04-14T14:22:49.800Z,15.90
2023-04-14T14:25:20.106Z,16.00
2023-04-14T14:27:48.376Z,16.20
2023-04-14T14:30:15.835Z,16.20
2023-04-14T14:32:43.107Z,16.20
2023-04-14T14:35:10.490Z,16.30
2023-04-14T14:37:37.792Z,16.20
2023-04-14T14:40:05.852Z,16.10
2023-04-14T14:42:33.160Z,15.90
2023-04-14T14:45:00.917Z,15.80
2023-04-14T14:47:29.006Z,15.50
2023-04-14T14:50:02.944Z,15.60
2023-04-14T14:52:32.839Z,15.90
2023-04-14T14:54:59.970Z,16.00
2023-04-14T14:57:27.469Z,16.00
2023-04-14T14:59:54.624Z,16.00
2023-04-14T15:02:22.561Z,15.80
2023-04-14T15:04:50.053Z,15.60
2023-04-14T15:07:18.044Z,15.70
2023-04-14T15:09:49.878Z,15.70
2023-04-14T15:12:17.620Z,15.70
2023-04-14T15:14:44.827Z,15.70
2023-04-14T15:17:11.862Z,15.70
2023-04-14T15:19:39.084Z,15.80
2023-04-14T15:22:06.438Z,16.00
2023-04-14T15:24:33.861Z,16.10
2023-04-14T15:27:02.527Z,16.20
2023-04-14T15:29:30.528Z,16.30
2023-04-14T15:31:57.650Z,16.20
2023-04-14T15:34:25.321Z,16.10
2023-04-14T15:36:52.423Z,16.20
2023-04-14T15:39:19.524Z,16.20
2023-04-14T15:41:47.738Z,16.10
2023-04-14T15:44:16.610Z,16.30
2023-04-14T15:46:43.709Z,16.30
2023-04-14T15:49:10.946Z,16.60
2023-04-14T15:51:38.039Z,17.00
2023-04-14T15:54:05.273Z,17.90
2023-04-14T15:56:32.354Z,16.50
2023-04-14T15:58:59.345Z,16.90
2023-04-14T16:01:26.507Z,17.60
2023-04-14T16:03:53.979Z,17.60
2023-04-14T16:06:21.574Z,17.00
2023-04-14T16:08:48.621Z,16.50
2023-04-14T16:11:16.568Z,17.30
2023-04-14T16:13:44.105Z,17.40
2023-04-14T16:16:14.213Z,17.00
2023-04-14T16:18:42.407Z,17.40
2023-04-14T16:21:09.690Z,16.90
2023-04-14T16:23:36.872Z,16.10
2023-04-14T16:26:04.188Z,16.00
2023-04-14T16:28:31.757Z,15.80
2023-04-14T16:31:05.370Z,15.50
2023-04-14T16:33:32.825Z,15.40
2023-04-14T16:36:07.765Z,15.20
2023-04-14T16:38:37.621Z,15.00
2023-04-14T16:41:04.727Z,14.80
2023-04-14T16:43:31.952Z,14.90
2023-04-14T16:46:04.175Z,15.50
2023-04-14T16:48:32.637Z,15.40
2023-04-14T16:51:10.907Z,15.50
2023-04-14T16:53:39.029Z,15.00
2023-04-14T16:56:10.513Z,14.70
2023-04-14T16:58:39.038Z,14.60
2023-04-14T17:01:06.907Z,14.50
2023-04-14T17:03:36.164Z,14.50
2023-04-14T17:06:04.066Z,14.50
2023-04-14T17:08:31.196Z,14.40
2023-04-14T17:10:58.607Z,14.20
2023-04-14T17:13:26.918Z,14.00
2023-04-14T17:16:02.449Z,14.00
2023-04-14T17:18:35.610Z,14.00
2023-04-14T17:21:03.347Z,14.00
2023-04-14T17:23:30.564Z,13.90
2023-04-14T17:25:58.771Z,13.90
2023-04-14T17:28:27.276Z,14.00
2023-04-14T17:30:54.364Z,14.00
2023-04-14T17:33:22.162Z,13.90
2023-04-14T17:35:49.260Z,13.90
2023-04-14T17:38:16.335Z,13.70
2023-04-14T17:40:43.455Z,13.60
2023-04-14T17:43:10.726Z,13.60
2023-04-14T17:45:39.922Z,13.60
2023-04-14T17:48:07.571Z,13.50
2023-04-14T17:50:36.004Z,13.60
2023-04-14T17:53:03.111Z,13.60
2023-04-14T17:55:30.197Z,13.50
2023-04-14T17:57:57.883Z,13.40
2023-04-14T18:00:24.939Z,13.50
2023-04-14T18:02:52.661Z,13.40
2023-04-14T18:05:19.960Z,13.50
2023-04-14T18:07:47.076Z,13.40
2023-04-14T18:10:14.310Z,13.30
2023-04-14T18:12:41.815Z,13.20
2023-04-14T18:15:15.190Z,13.10
2023-04-14T18:17:43.634Z,13.00
2023-04-14T18:20:12.337Z,12.90
2023-04-14T18:22:39.520Z,12.90
2023-04-14T18:25:08.360Z,12.70
2023-04-14T18:30:07.281Z,12.40
2023-04-14T18:32:34.551Z,12.30
2023-04-14T18:35:01.677Z,12.30
2023-04-14T18:37:28.951Z,12.20
2023-04-14T18:39:56.776Z,12.00
2023-04-14T18:42:23.955Z,12.00
2023-04-14T18:44:51.802Z,11.90
2023-04-14T18:47:19.691Z,11.80
2023-04-14T18:49:47.021Z,11.70
2023-04-14T18:52:14.029Z,11.60
2023-04-14T18:54:41.202Z,11.60
2023-04-14T18:57:08.371Z,11.50
2023-04-14T18:59:36.288Z,11.30
2023-04-14T19:02:04.559Z,11.10
2023-04-14T19:04:31.770Z,11.00
2023-04-14T19:06:58.854Z,11.00
2023-04-14T19:09:27.504Z,10.90
2023-04-14T19:11:55.639Z,10.90
2023-04-14T19:14:23.258Z,10.80
2023-04-14T19:16:50.315Z,10.70
2023-04-14T19:19:17.275Z,10.60
2023-04-14T19:21:44.447Z,10.60
2023-04-14T19:24:11.863Z,10.50
2023-04-14T19:26:41.014Z,10.50
2023-04-14T19:29:08.151Z,10.40
2023-04-14T19:31:35.469Z,10.40
2023-04-14T19:34:02.745Z,10.40
2023-04-14T19:36:32.277Z,10.40
2023-04-14T19:38:59.768Z,10.30
2023-04-14T19:41:27.431Z,10.30
2023-04-14T19:43:54.459Z,10.30
2023-04-14T19:46:21.805Z,10.20
2023-04-14T19:48:49.416Z,10.20
2023-04-14T19:51:16.383Z,10.20
2023-04-14T19:53:44.215Z,10.20
2023-04-14T19:56:11.694Z,10.10
2023-04-14T19:58:38.648Z,10.10
2023-04-14T20:01:05.817Z,10.10
2023-04-14T20:03:34.488Z,10.10
2023-04-14T20:06:02.183Z,10.10
2023-04-14T20:08:30.549Z,10.10
2023-04-14T20:10:57.755Z,10.00
2023-04-14T20:13:27.745Z,10.00
2023-04-14T20:15:55.314Z,10.00
2023-04-14T20:18:22.752Z,9.90
2023-04-14T20:20:50.398Z,9.90
2023-04-14T20:23:17.784Z,9.90
2023-04-14T20:25:45.893Z,9.80
2023-04-14T20:28:15.413Z,9.80
2023-04-14T20:30:48.200Z,9.80
2023-04-14T20:33:21.501Z,9.70
2023-04-14T20:35:51.556Z,9.70
2023-04-14T20:38:18.941Z,9.70
2023-04-14T20:40:46.200Z,9.70
2023-04-14T20:43:13.215Z,9.60
2023-04-14T20:45:40.563Z,9.60
2023-04-14T20:48:08.007Z,9.60
2023-04-14T20:50:35.205Z,9.50
2023-04-14T20:53:02.245Z,9.50
2023-04-14T20:55:32.543Z,9.50
2023-04-14T20:57:59.962Z,9.40
2023-04-14T21:00:27.019Z,9.30
2023-04-14T21:02:54.449Z,9.30
2023-04-14T21:05:22.075Z,9.30
2023-04-14T21:07:49.563Z,9.20
2023-04-14T21:10:16.646Z,9.20
2023-04-14T21:15:06.434Z,9.20
2023-04-14T21:15:48.584Z,9.10
2023-04-14T21:18:19.133Z,9.10
2023-04-14T21:20:46.389Z,9.00
2023-04-14T21:23:13.663Z,9.00
2023-04-14T21:25:41.018Z,8.90
2023-04-14T21:28:08.697Z,9.00
2023-04-14T21:30:36.057Z,8.90
2023-04-14T21:33:06.927Z,8.90
2023-04-14T21:35:35.730Z,9.00
2023-04-14T21:38:03.485Z,9.00
2023-04-14T21:40:30.941Z,9.00
2023-04-14T21:42:58.208Z,9.10
2023-04-14T21:45:27.044Z,9.10
2023-04-14T21:47:54.189Z,9.00
2023-04-14T21:50:21.692Z,9.10
2023-04-14T21:52:48.669Z,9.20
2023-04-14T21:55:16.389Z,9.20
2023-04-14T21:57:49.353Z,9.10
2023-04-14T22:00:20.325Z,9.10
2023-04-14T22:02:47.927Z,9.10
2023-04-14T22:05:15.874Z,9.10
2023-04-14T22:07:42.988Z,9.10
2023-04-14T22:10:10.424Z,9.00
2023-04-14T22:12:39.727Z,9.00
2023-04-14T22:15:10.558Z,8.90
2023-04-14T22:17:41.571Z,8.90
2023-04-14T22:20:09.863Z,8.90
2023-04-14T22:22:37.255Z,8.80
2023-04-14T22:25:04.999Z,8.80
2023-04-14T22:27:33.880Z,8.80
2023-04-14T22:30:02.052Z,8.70
2023-04-14T22:32:29.301Z,8.70
2023-04-14T22:34:56.534Z,8.60
2023-04-14T22:37:23.752Z,8.60
2023-04-14T22:39:50.895Z,8.50
2023-04-14T22:42:18.064Z,8.50
2023-04-14T22:44:45.277Z,8.50
2023-04-14T22:47:12.468Z,8.50
2023-04-14T22:49:39.536Z,8.50
2023-04-14T22:52:06.751Z,8.50
2023-04-14T22:54:33.785Z,8.40
2023-04-14T22:57:01.316Z,8.40
2023-04-14T22:59:28.315Z,8.40
2023-04-14T23:01:55.842Z,8.40
2023-04-14T23:04:23.056Z,8.40
2023-04-14T23:06:50.140Z,8.30
2023-04-14T23:09:17.136Z,8.30
2023-04-14T23:11:44.354Z,8.30
2023-04-14T23:14:11.573Z,8.30
2023-04-14T23:16:39.099Z,8.20
2023-04-14T23:19:06.987Z,8.20
2023-04-14T23:21:34.720Z,8.20
2023-04-14T23:24:02.030Z,8.10
2023-04-14T23:26:29.529Z,8.10
2023-04-14T23:28:56.760Z,8.10
2023-04-14T23:31:23.949Z,8.10
2023-04-14T23:33:52.827Z,8.00
2023-04-14T23:36:20.456Z,8.00
2023-04-14T23:38:47.507Z,7.90
2023-04-14T23:41:14.641Z,7.90
2023-04-14T23:43:41.740Z,7.90
2023-04-14T23:46:08.804Z,7.80
2023-04-14T23:48:36.021Z,7.80
2023-04-14T23:51:17.904Z,7.70
2023-04-14T23:53:49.409Z,7.60
2023-04-14T23:56:16.635Z,7.50
2023-04-14T23:58:44.544Z,7.50
